Time;durP1;ratioP1;P1;durP2;ratioP2;P2;SDS_P1;SDS_P2;PMS_P1;PMS_P2;Temp;Humidity;BMP_temperature;BMP_pressure;BME280_temperature;BME280_humidity;BME280_pressure;Samples;Min_cycle;Max_cycle;Signal;HPM_P1;HPM_P2
2022/04/19 00:00:55;;;;;;;;;;;21.70;27.90;;;;;;454466;263;1401;-76
2022/04/19 00:02:56;;;;;;;;;;;21.80;27.90;;;;;;454480;263;2223;-76
2022/04/19 00:04:59;;;;;;;;;;;21.80;27.80;;;;;;454507;263;1035;-76
2022/04/19 00:06:59;;;;;;;;;;;21.80;27.90;;;;;;454438;263;1447;-76
2022/04/19 00:09:01;;;;;;;;;;;21.70;27.90;;;;;;454556;263;954;-76
2022/04/19 00:11:03;;;;;;;;;;;21.70;27.90;;;;;;454441;262;1352;-76
2022/04/19 00:13:03;;;;;;;;;;;21.70;27.90;;;;;;454434;263;1473;-76
2022/04/19 00:15:05;;;;;;;;;;;21.90;27.80;;;;;;454517;263;1063;-76
2022/04/19 00:17:07;;;;;;;;;;;21.90;27.90;;;;;;454413;263;1280;-76
2022/04/19 00:19:08;;;;;;;;;;;21.90;27.90;;;;;;454499;263;1178;-76
2022/04/19 00:21:09;;;;;;;;;;;21.80;28.00;;;;;;454471;263;1257;-76
2022/04/19 00:23:12;;;;;;;;;;;21.80;27.90;;;;;;454480;263;2212;-76
2022/04/19 00:25:12;;;;;;;;;;;21.90;27.90;;;;;;454351;263;1532;-76
2022/04/19 00:27:14;;;;;;;;;;;21.80;27.90;;;;;;454511;263;944;-76
2022/04/19 00:29:15;;;;;;;;;;;21.80;27.90;;;;;;454532;262;1028;-76
2022/04/19 00:31:16;;;;;;;;;;;22.00;27.90;;;;;;454468;262;1099;-76
2022/04/19 00:33:18;;;;;;;;;;;21.90;27.90;;;;;;454512;259;1316;-76
2022/04/19 00:35:19;;;;;;;;;;;21.90;27.90;;;;;;454502;263;1097;-76
2022/04/19 00:37:21;;;;;;;;;;;21.80;27.90;;;;;;454538;263;1129;-76
2022/04/19 00:39:22;;;;;;;;;;;21.90;28.00;;;;;;454530;263;1474;-76
2022/04/19 00:41:23;;;;;;;;;;;21.80;28.00;;;;;;454475;263;1054;-76
2022/04/19 00:43:26;;;;;;;;;;;21.80;28.00;;;;;;454463;263;2208;-76
2022/04/19 00:45:26;;;;;;;;;;;21.90;27.90;;;;;;454531;263;1451;-76
2022/04/19 00:47:28;;;;;;;;;;;21.90;27.80;;;;;;454441;263;1097;-76
2022/04/19 00:49:29;;;;;;;;;;;21.90;27.90;;;;;;454510;263;1235;-76
2022/04/19 00:51:30;;;;;;;;;;;21.90;27.90;;;;;;454488;263;980;-76
2022/04/19 00:53:32;;;;;;;;;;;21.80;27.90;;;;;;454471;263;1272;-76
2022/04/19 00:55:33;;;;;;;;;;;21.80;27.90;;;;;;454478;263;1006;-76
2022/04/19 00:57:34;;;;;;;;;;;21.90;27.90;;;;;;454487;263;1435;-76
2022/04/19 00:59:36;;;;;;;;;;;21.90;27.90;;;;;;454479;263;1123;-76
2022/04/19 01:01:37;;;;;;;;;;;21.80;27.90;;;;;;454416;263;1491;-76
2022/04/19 01:03:38;;;;;;;;;;;21.80;27.90;;;;;;454489;263;2149;-76
2022/04/19 01:05:40;;;;;;;;;;;21.80;28.00;;;;;;454478;263;1105;-76
2022/04/19 01:07:41;;;;;;;;;;;21.80;27.90;;;;;;454494;263;1064;-76
2022/04/19 01:09:42;;;;;;;;;;;21.80;27.90;;;;;;454502;263;1007;-76
2022/04/19 01:14:03;;;;;;;;;;;21.90;27.90;;;;;;454520;261;1079;-76
2022/04/19 01:16:04;;;;;;;;;;;21.70;28.00;;;;;;454525;263;1051;-75
2022/04/19 01:18:07;;;;;;;;;;;21.80;28.00;;;;;;454507;262;1072;-75
2022/04/19 01:20:07;;;;;;;;;;;21.70;28.00;;;;;;454386;263;1524;-76
2022/04/19 01:22:12;;;;;;;;;;;21.80;28.00;;;;;;454544;262;1168;-76
2022/04/19 01:24:10;;;;;;;;;;;21.80;28.00;;;;;;454289;263;2137;-76
2022/04/19 01:26:11;;;;;;;;;;;21.70;28.00;;;;;;454476;263;1198;-76
2022/04/19 01:28:12;;;;;;;;;;;21.80;28.00;;;;;;454478;263;1075;-76
2022/04/19 01:30:14;;;;;;;;;;;21.80;27.90;;;;;;454515;263;980;-76
2022/04/19 01:32:15;;;;;;;;;;;21.90;28.00;;;;;;454459;263;1150;-76
2022/04/19 01:34:16;;;;;;;;;;;21.80;28.00;;;;;;454508;263;1114;-76
2022/04/19 01:36:18;;;;;;;;;;;21.70;27.90;;;;;;454395;263;1652;-76
2022/04/19 01:38:19;;;;;;;;;;;21.70;28.00;;;;;;454513;262;1084;-76
2022/04/19 01:40:20;;;;;;;;;;;21.80;28.00;;;;;;454478;262;1059;-76
2022/04/19 01:42:22;;;;;;;;;;;21.80;28.00;;;;;;454446;263;1245;-76
2022/04/19 01:44:23;;;;;;;;;;;21.80;28.00;;;;;;454461;263;2144;-76
2022/04/19 01:46:25;;;;;;;;;;;21.70;28.00;;;;;;454430;263;1303;-76
2022/04/19 01:48:26;;;;;;;;;;;21.90;27.90;;;;;;454441;263;1679;-76
2022/04/19 01:50:27;;;;;;;;;;;21.80;27.90;;;;;;454520;263;1228;-76
2022/04/19 01:52:28;;;;;;;;;;;21.80;27.90;;;;;;454504;262;1179;-76
2022/04/19 01:54:30;;;;;;;;;;;21.90;27.90;;;;;;454547;263;960;-76
2022/04/19 01:56:32;;;;;;;;;;;21.60;27.90;;;;;;454500;263;1141;-76
2022/04/19 01:58:32;;;;;;;;;;;21.60;28.00;;;;;;454469;263;1572;-76
2022/04/19 02:00:34;;;;;;;;;;;21.80;28.00;;;;;;454502;263;1214;-76
2022/04/19 02:02:35;;;;;;;;;;;21.70;27.90;;;;;;454481;262;1273;-76
2022/04/19 02:04:36;;;;;;;;;;;21.80;27.80;;;;;;454465;263;2208;-76
2022/04/19 02:06:39;;;;;;;;;;;21.90;27.90;;;;;;454542;263;1232;-76
2022/04/19 02:08:39;;;;;;;;;;;21.80;28.00;;;;;;454481;263;1528;-76
2022/04/19 02:10:40;;;;;;;;;;;21.70;27.90;;;;;;454525;263;986;-76
2022/04/19 02:12:42;;;;;;;;;;;21.60;28.00;;;;;;454486;263;1233;-76
2022/04/19 02:14:43;;;;;;;;;;;21.70;28.00;;;;;;454500;263;1043;-76
2022/04/19 02:16:44;;;;;;;;;;;21.80;27.90;;;;;;454537;262;994;-76
2022/04/19 02:18:45;;;;;;;;;;;21.80;27.90;;;;;;454549;263;1067;-76
2022/04/19 02:20:47;;;;;;;;;;;21.70;27.90;;;;;;454524;263;1229;-76
2022/04/19 02:22:48;;;;;;;;;;;21.80;27.80;;;;;;454515;263;1067;-76
2022/04/19 02:24:49;;;;;;;;;;;21.60;27.90;;;;;;454560;262;2121;-76
2022/04/19 02:26:51;;;;;;;;;;;21.80;27.80;;;;;;454516;263;1394;-76
2022/04/19 02:28:52;;;;;;;;;;;21.80;27.90;;;;;;454549;263;1183;-76
2022/04/19 02:30:54;;;;;;;;;;;21.70;27.90;;;;;;454536;263;1201;-76
2022/04/19 02:32:55;;;;;;;;;;;21.90;27.80;;;;;;454555;262;1280;-76
2022/04/19 02:34:57;;;;;;;;;;;21.80;27.80;;;;;;454542;263;1331;-76
2022/04/19 02:36:59;;;;;;;;;;;21.80;27.90;;;;;;454427;263;1168;-76
2022/04/19 02:39:01;;;;;;;;;;;21.90;27.80;;;;;;454536;263;1041;-76
2022/04/19 02:41:01;;;;;;;;;;;21.80;27.80;;;;;;454477;263;1384;-76
2022/04/19 02:43:03;;;;;;;;;;;21.70;27.90;;;;;;454438;263;1092;-76
2022/04/19 02:45:05;;;;;;;;;;;21.70;27.90;;;;;;454550;263;2215;-76
2022/04/19 02:47:05;;;;;;;;;;;21.70;28.00;;;;;;454462;263;1632;-76
2022/04/19 02:49:07;;;;;;;;;;;21.70;28.00;;;;;;454507;263;1016;-76
2022/04/19 02:51:08;;;;;;;;;;;21.80;28.00;;;;;;454548;263;1215;-76
2022/04/19 02:53:09;;;;;;;;;;;21.70;27.90;;;;;;454516;263;1285;-76
2022/04/19 02:55:11;;;;;;;;;;;21.80;28.00;;;;;;454513;263;1233;-76
2022/04/19 02:57:12;;;;;;;;;;;21.90;27.90;;;;;;454442;262;1235;-76
2022/04/19 02:59:13;;;;;;;;;;;21.80;27.90;;;;;;454500;263;1064;-76
2022/04/19 03:01:15;;;;;;;;;;;21.80;28.00;;;;;;454563;262;1184;-76
2022/04/19 03:03:16;;;;;;;;;;;21.80;28.00;;;;;;454509;263;1172;-76
2022/04/19 03:05:17;;;;;;;;;;;21.80;27.90;;;;;;454463;263;2196;-76
2022/04/19 03:07:19;;;;;;;;;;;21.70;27.90;;;;;;454500;263;1185;-76
2022/04/19 03:09:20;;;;;;;;;;;21.90;28.00;;;;;;454564;263;986;-75
2022/04/19 03:11:22;;;;;;;;;;;21.90;27.90;;;;;;454480;263;1275;-76
2022/04/19 03:13:23;;;;;;;;;;;21.80;27.90;;;;;;454462;263;1128;-76
2022/04/19 03:15:24;;;;;;;;;;;21.70;27.90;;;;;;454511;263;956;-76
2022/04/19 03:17:26;;;;;;;;;;;21.90;27.90;;;;;;454514;263;1257;-76
2022/04/19 03:19:27;;;;;;;;;;;21.90;27.90;;;;;;454523;263;1348;-76
2022/04/19 03:21:28;;;;;;;;;;;21.90;27.90;;;;;;454430;262;1238;-76
2022/04/19 03:28:09;;;;;;;;;;;21.90;27.90;;;;;;454517;261;1110;-75
2022/04/19 03:30:09;;;;;;;;;;;21.80;27.90;;;;;;454466;263;1557;-76
2022/04/19 03:32:11;;;;;;;;;;;21.80;28.00;;;;;;454496;263;1366;-76
2022/04/19 03:34:12;;;;;;;;;;;21.80;28.00;;;;;;454470;263;1265;-76
2022/04/19 03:36:13;;;;;;;;;;;21.90;27.90;;;;;;454447;263;1244;-76
2022/04/19 03:38:16;;;;;;;;;;;21.80;28.00;;;;;;454485;263;1138;-75
2022/04/19 03:40:16;;;;;;;;;;;21.80;28.00;;;;;;454414;263;1493;-75
2022/04/19 03:42:17;;;;;;;;;;;21.90;28.00;;;;;;454487;263;1373;-75
2022/04/19 03:44:19;;;;;;;;;;;21.90;28.00;;;;;;454501;263;2188;-76
2022/04/19 03:46:20;;;;;;;;;;;21.90;28.00;;;;;;454543;262;1217;-76
2022/04/19 03:48:21;;;;;;;;;;;21.90;28.00;;;;;;454499;263;990;-76
2022/04/19 03:50:25;;;;;;;;;;;21.80;28.00;;;;;;454556;262;1185;-76
2022/04/19 03:52:24;;;;;;;;;;;21.80;28.00;;;;;;454393;263;1455;-76
2022/04/19 03:54:25;;;;;;;;;;;21.70;28.00;;;;;;454568;263;1082;-76
2022/04/19 03:56:27;;;;;;;;;;;21.90;28.00;;;;;;454450;263;1273;-76
2022/04/19 03:58:28;;;;;;;;;;;21.90;28.00;;;;;;454517;263;989;-76
2022/04/19 04:00:29;;;;;;;;;;;21.80;28.00;;;;;;454528;262;1096;-76
2022/04/19 04:02:31;;;;;;;;;;;21.90;27.90;;;;;;454456;263;1063;-76
2022/04/19 04:04:34;;;;;;;;;;;21.90;27.90;;;;;;454537;262;2216;-76
2022/04/19 04:06:33;;;;;;;;;;;21.90;27.90;;;;;;454050;263;1449;-76
2022/04/19 04:08:35;;;;;;;;;;;21.70;27.90;;;;;;454225;263;975;-76
2022/04/19 04:10:36;;;;;;;;;;;21.90;28.00;;;;;;454226;262;1216;-76
2022/04/19 04:12:37;;;;;;;;;;;21.80;28.00;;;;;;454139;263;1134;-76
2022/04/19 04:14:39;;;;;;;;;;;21.90;27.90;;;;;;454250;262;982;-76
2022/04/19 04:16:40;;;;;;;;;;;21.90;27.90;;;;;;454129;263;1170;-76
2022/04/19 04:18:41;;;;;;;;;;;21.90;27.90;;;;;;454179;263;1115;-76
2022/04/19 04:20:43;;;;;;;;;;;21.80;27.90;;;;;;454323;262;1256;-76
2022/04/19 04:22:44;;;;;;;;;;;21.90;27.90;;;;;;454132;263;1222;-76
2022/04/19 04:24:45;;;;;;;;;;;21.80;27.90;;;;;;454328;263;2144;-76
2022/04/19 04:26:47;;;;;;;;;;;21.80;28.00;;;;;;454190;262;1202;-76
2022/04/19 04:28:48;;;;;;;;;;;21.80;27.90;;;;;;454204;263;1006;-76
2022/04/19 04:30:49;;;;;;;;;;;21.90;27.90;;;;;;454173;263;973;-76
2022/04/19 04:32:51;;;;;;;;;;;21.80;27.90;;;;;;454127;262;1126;-76
2022/04/19 04:34:52;;;;;;;;;;;21.80;27.90;;;;;;454070;262;1212;-76
2022/04/19 04:36:53;;;;;;;;;;;22.00;27.90;;;;;;454033;259;1862;-76
2022/04/19 04:38:55;;;;;;;;;;;21.80;27.90;;;;;;454164;262;1190;-76
2022/04/19 04:40:56;;;;;;;;;;;21.90;27.80;;;;;;454101;263;1078;-76
2022/04/19 04:42:57;;;;;;;;;;;22.00;27.80;;;;;;454154;262;1108;-76
2022/04/19 04:44:59;;;;;;;;;;;22.00;27.80;;;;;;454155;263;2216;-76
2022/04/19 04:49:39;;;;;;;;;;;21.90;27.90;;;;;;454199;261;1130;-76
2022/04/19 04:51:39;;;;;;;;;;;22.00;27.90;;;;;;454154;263;1513;-76
2022/04/19 04:53:40;;;;;;;;;;;21.90;27.90;;;;;;454141;262;1151;-76
2022/04/19 04:55:42;;;;;;;;;;;21.90;27.90;;;;;;454131;263;997;-76
2022/04/19 04:57:43;;;;;;;;;;;21.80;28.00;;;;;;454088;263;1120;-76
2022/04/19 04:59:47;;;;;;;;;;;21.80;28.00;;;;;;454104;263;973;-76
2022/04/19 05:01:46;;;;;;;;;;;21.90;28.00;;;;;;453892;263;1439;-76
2022/04/19 05:03:47;;;;;;;;;;;21.80;28.00;;;;;;454186;263;1219;-76
2022/04/19 05:05:49;;;;;;;;;;;21.80;28.00;;;;;;453984;263;2142;-76
2022/04/19 05:07:51;;;;;;;;;;;21.80;28.00;;;;;;453992;262;1194;-76
2022/04/19 05:09:51;;;;;;;;;;;21.80;28.00;;;;;;453984;263;1348;-76
2022/04/19 05:11:53;;;;;;;;;;;21.80;28.00;;;;;;453978;262;1144;-76
2022/04/19 05:13:54;;;;;;;;;;;21.90;28.10;;;;;;454009;262;1104;-76
2022/04/19 05:15:58;;;;;;;;;;;21.80;28.10;;;;;;454019;263;1071;-76
2022/04/19 05:17:57;;;;;;;;;;;21.80;28.10;;;;;;453847;263;1418;-76
2022/04/19 05:19:58;;;;;;;;;;;21.80;28.20;;;;;;453972;263;1075;-76
2022/04/19 05:22:00;;;;;;;;;;;21.80;28.20;;;;;;454124;262;1145;-76
2022/04/19 05:24:01;;;;;;;;;;;21.80;28.10;;;;;;454226;263;1348;-76
2022/04/19 05:26:02;;;;;;;;;;;21.80;28.20;;;;;;453911;263;2200;-75
2022/04/19 05:28:04;;;;;;;;;;;21.70;28.30;;;;;;453916;262;1246;-76
2022/04/19 05:30:05;;;;;;;;;;;21.90;28.20;;;;;;454024;262;1145;-75
2022/04/19 05:32:07;;;;;;;;;;;21.80;28.20;;;;;;453968;263;1128;-75
2022/04/19 05:34:08;;;;;;;;;;;21.80;28.20;;;;;;453911;263;1184;-75
2022/04/19 05:36:09;;;;;;;;;;;21.90;28.20;;;;;;453895;262;1156;-76
2022/04/19 05:38:11;;;;;;;;;;;21.80;28.30;;;;;;453887;263;1252;-76
2022/04/19 05:40:14;;;;;;;;;;;21.80;28.30;;;;;;453884;262;1081;-76
2022/04/19 05:42:13;;;;;;;;;;;21.80;28.20;;;;;;453755;263;1375;-76
2022/04/19 05:44:15;;;;;;;;;;;21.90;28.20;;;;;;453806;263;1087;-76
2022/04/19 05:46:17;;;;;;;;;;;21.80;28.30;;;;;;453777;262;2208;-75
2022/04/19 05:48:17;;;;;;;;;;;21.80;28.30;;;;;;453861;262;1204;-75
2022/04/19 05:50:19;;;;;;;;;;;21.90;28.30;;;;;;453814;263;1102;-75
2022/04/19 05:52:20;;;;;;;;;;;21.90;28.20;;;;;;453888;262;1177;-76
2022/04/19 05:54:21;;;;;;;;;;;21.90;28.20;;;;;;453809;263;997;-75
2022/04/19 05:56:23;;;;;;;;;;;21.90;28.20;;;;;;453626;262;1187;-76
2022/04/19 05:58:24;;;;;;;;;;;21.80;28.40;;;;;;453851;262;1127;-76
2022/04/19 06:00:25;;;;;;;;;;;21.80;28.40;;;;;;453796;262;1085;-76
2022/04/19 06:04:57;;;;;;;;;;;21.80;28.40;;;;;;453859;261;1193;-75
2022/04/19 06:06:56;;;;;;;;;;;21.80;28.40;;;;;;453809;262;2121;-76
2022/04/19 06:08:57;;;;;;;;;;;21.90;28.40;;;;;;453907;263;1205;-75
2022/04/19 06:10:59;;;;;;;;;;;22.00;28.30;;;;;;453810;262;1218;-76
2022/04/19 06:13:00;;;;;;;;;;;21.90;28.40;;;;;;453798;262;1217;-75
2022/04/19 06:15:01;;;;;;;;;;;21.90;28.30;;;;;;453803;262;1085;-75
2022/04/19 06:17:03;;;;;;;;;;;21.80;28.40;;;;;;453827;263;1240;-76
2022/04/19 06:19:04;;;;;;;;;;;21.80;28.50;;;;;;453650;262;1085;-76
2022/04/19 06:21:05;;;;;;;;;;;21.90;28.40;;;;;;453594;263;1222;-75
2022/04/19 06:23:07;;;;;;;;;;;21.80;28.40;;;;;;453536;262;1122;-75
2022/04/19 06:25:08;;;;;;;;;;;21.90;28.40;;;;;;453720;263;1005;-75
2022/04/19 06:27:10;;;;;;;;;;;21.80;28.40;;;;;;453643;262;2116;-75
2022/04/19 06:29:11;;;;;;;;;;;21.90;28.50;;;;;;453582;263;1379;-76
2022/04/19 06:31:12;;;;;;;;;;;22.00;28.50;;;;;;453587;263;1230;-76
2022/04/19 06:33:14;;;;;;;;;;;22.10;28.40;;;;;;453698;262;1060;-76
2022/04/19 06:35:15;;;;;;;;;;;22.00;28.40;;;;;;453727;262;1025;-76
2022/04/19 06:37:16;;;;;;;;;;;22.10;28.40;;;;;;453839;262;1085;-75
2022/04/19 06:39:18;;;;;;;;;;;22.10;28.40;;;;;;453792;262;1237;-75
2022/04/19 06:41:19;;;;;;;;;;;22.20;28.30;;;;;;453772;263;1077;-75
2022/04/19 06:43:21;;;;;;;;;;;22.10;28.30;;;;;;453704;262;1078;-76
2022/04/19 06:45:22;;;;;;;;;;;22.10;28.40;;;;;;453371;263;2208;-75
2022/04/19 06:47:24;;;;;;;;;;;22.00;28.40;;;;;;453449;262;1091;-75
2022/04/19 06:49:25;;;;;;;;;;;22.00;28.50;;;;;;453659;262;1235;-75
2022/04/19 06:51:26;;;;;;;;;;;22.00;28.50;;;;;;453589;263;1112;-75
2022/04/19 06:53:30;;;;;;;;;;;22.10;28.50;;;;;;453653;263;1275;-75
2022/04/19 06:55:29;;;;;;;;;;;22.10;28.50;;;;;;453617;263;1434;-75
2022/04/19 06:57:30;;;;;;;;;;;22.00;28.60;;;;;;453587;263;1186;-75
2022/04/19 06:59:31;;;;;;;;;;;22.10;28.50;;;;;;453602;262;1065;-75
2022/04/19 07:01:33;;;;;;;;;;;22.00;28.60;;;;;;453631;263;1104;-76
2022/04/19 07:03:34;;;;;;;;;;;22.00;28.60;;;;;;453577;263;1067;-76
2022/04/19 07:05:36;;;;;;;;;;;22.10;28.60;;;;;;453426;262;2125;-75
2022/04/19 07:07:37;;;;;;;;;;;22.20;28.60;;;;;;453657;262;1501;-75
2022/04/19 07:09:38;;;;;;;;;;;21.90;28.70;;;;;;453585;263;1427;-75
2022/04/19 07:11:40;;;;;;;;;;;21.90;28.90;;;;;;453566;262;1258;-76
2022/04/19 07:13:41;;;;;;;;;;;21.80;28.90;;;;;;453581;262;1070;-76
2022/04/19 07:15:42;;;;;;;;;;;21.70;29.10;;;;;;453406;262;1350;-76
2022/04/19 07:17:44;;;;;;;;;;;21.60;29.10;;;;;;453566;263;1068;-76
2022/04/19 07:26:51;;;;;;;;;;;21.50;29.20;;;;;;453511;263;2208;-76
2022/04/19 07:28:52;;;;;;;;;;;21.50;29.30;;;;;;453618;262;1154;-76
2022/04/19 07:30:53;;;;;;;;;;;21.50;29.20;;;;;;453419;263;1070;-76
2022/04/19 07:32:55;;;;;;;;;;;21.60;29.30;;;;;;453483;263;1060;-76
2022/04/19 07:34:56;;;;;;;;;;;21.60;29.20;;;;;;453445;263;1317;-76
2022/04/19 07:36:58;;;;;;;;;;;21.70;29.10;;;;;;453346;262;1285;-76
2022/04/19 07:38:59;;;;;;;;;;;21.60;29.30;;;;;;453532;262;1074;-76
2022/04/19 07:41:00;;;;;;;;;;;21.70;29.20;;;;;;453497;263;1214;-76
2022/04/19 07:43:02;;;;;;;;;;;21.60;29.20;;;;;;453509;263;1201;-75
2022/04/19 07:45:03;;;;;;;;;;;21.60;29.30;;;;;;453465;262;1021;-75
2022/04/19 07:47:04;;;;;;;;;;;21.50;29.30;;;;;;453418;263;2215;-76
2022/04/19 07:49:06;;;;;;;;;;;21.50;29.30;;;;;;453510;262;1022;-75
2022/04/19 07:51:07;;;;;;;;;;;21.60;29.30;;;;;;453502;263;1243;-76
2022/04/19 07:53:08;;;;;;;;;;;21.70;29.20;;;;;;453581;262;1055;-76
2022/04/19 07:55:10;;;;;;;;;;;21.60;29.20;;;;;;453447;262;1193;-76
2022/04/19 07:57:11;;;;;;;;;;;21.60;29.20;;;;;;453486;262;1238;-76
2022/04/19 07:59:13;;;;;;;;;;;21.60;29.20;;;;;;453580;262;1056;-75
2022/04/19 08:01:14;;;;;;;;;;;21.60;29.20;;;;;;453589;262;1468;-75
2022/04/19 08:03:15;;;;;;;;;;;21.60;29.20;;;;;;453612;263;1122;-76
2022/04/19 08:05:17;;;;;;;;;;;21.60;29.10;;;;;;453497;263;1082;-75
2022/04/19 08:07:18;;;;;;;;;;;21.80;29.00;;;;;;453365;262;2216;-75
2022/04/19 08:09:20;;;;;;;;;;;21.60;29.30;;;;;;453578;262;1121;-75
2022/04/19 08:11:21;;;;;;;;;;;21.50;29.30;;;;;;453628;263;1459;-75
2022/04/19 08:13:22;;;;;;;;;;;21.50;29.40;;;;;;453529;263;1097;-75
2022/04/19 08:15:24;;;;;;;;;;;21.60;29.20;;;;;;453437;263;1102;-75
2022/04/19 08:17:25;;;;;;;;;;;21.70;29.10;;;;;;453493;263;1315;-76
2022/04/19 08:19:27;;;;;;;;;;;21.60;29.30;;;;;;453574;263;1068;-76
2022/04/19 08:21:28;;;;;;;;;;;21.70;29.10;;;;;;453558;262;1378;-75
2022/04/19 08:23:29;;;;;;;;;;;21.70;29.20;;;;;;453631;262;1183;-75
2022/04/19 08:25:32;;;;;;;;;;;21.60;29.30;;;;;;453599;263;1194;-76
2022/04/19 08:27:32;;;;;;;;;;;21.70;29.20;;;;;;453592;263;2220;-76
2022/04/19 08:29:33;;;;;;;;;;;21.70;29.10;;;;;;453466;263;1101;-76
2022/04/19 08:31:34;;;;;;;;;;;21.60;29.30;;;;;;453254;262;1231;-75
2022/04/19 08:33:36;;;;;;;;;;;21.80;29.20;;;;;;453454;262;1240;-76
2022/04/19 08:35:37;;;;;;;;;;;21.60;29.30;;;;;;453478;263;1207;-75
2022/04/19 08:37:38;;;;;;;;;;;21.70;29.20;;;;;;453455;263;1189;-75
2022/04/19 08:39:40;;;;;;;;;;;21.70;29.30;;;;;;453517;262;1189;-75
2022/04/19 08:41:41;;;;;;;;;;;21.70;29.30;;;;;;453531;263;1117;-75
2022/04/19 08:43:43;;;;;;;;;;;21.80;29.20;;;;;;453537;263;1090;-75
2022/04/19 08:45:44;;;;;;;;;;;21.80;29.20;;;;;;453349;262;1321;-76
2022/04/19 08:47:45;;;;;;;;;;;21.70;29.30;;;;;;453524;262;2129;-76
2022/04/19 08:49:47;;;;;;;;;;;21.80;29.20;;;;;;453567;263;1017;-76
2022/04/19 08:51:48;;;;;;;;;;;21.80;29.30;;;;;;453526;263;1492;-76
2022/04/19 08:58:27;;;;;;;;;;;21.80;29.30;;;;;;453581;261;1102;-75
2022/04/19 09:00:29;;;;;;;;;;;21.60;29.40;;;;;;453462;262;1083;-75
2022/04/19 09:02:30;;;;;;;;;;;21.60;29.30;;;;;;453639;262;1077;-75
2022/04/19 09:04:31;;;;;;;;;;;21.60;29.40;;;;;;453532;262;1060;-76
2022/04/19 09:06:33;;;;;;;;;;;21.60;29.30;;;;;;453557;262;2220;-76
2022/04/19 09:08:34;;;;;;;;;;;21.50;29.30;;;;;;453560;263;1104;-76
2022/04/19 09:10:36;;;;;;;;;;;21.50;29.40;;;;;;453535;263;1108;-75
2022/04/19 09:12:37;;;;;;;;;;;21.60;29.30;;;;;;453606;263;1407;-75
2022/04/19 09:14:38;;;;;;;;;;;21.60;29.30;;;;;;453297;263;1168;-75
2022/04/19 09:16:40;;;;;;;;;;;21.60;29.20;;;;;;453351;263;1212;-75
2022/04/19 09:18:41;;;;;;;;;;;21.70;29.20;;;;;;453313;263;1377;-75
2022/04/19 09:20:42;;;;;;;;;;;21.60;29.10;;;;;;453357;262;1150;-75
2022/04/19 09:22:43;;;;;;;;;;;21.70;29.10;;;;;;453731;262;1434;-75
2022/04/19 09:24:45;;;;;;;;;;;21.70;29.10;;;;;;453350;262;1130;-75
2022/04/19 09:26:48;;;;;;;;;;;21.70;29.00;;;;;;453468;262;2173;-76
2022/04/19 09:28:47;;;;;;;;;;;21.70;29.00;;;;;;453307;262;1482;-75
2022/04/19 09:30:49;;;;;;;;;;;21.70;29.00;;;;;;453473;262;1157;-75
2022/04/19 09:32:50;;;;;;;;;;;21.60;29.10;;;;;;453645;262;1175;-76
2022/04/19 09:34:51;;;;;;;;;;;21.70;28.90;;;;;;453461;262;1077;-76
2022/04/19 09:36:53;;;;;;;;;;;21.80;28.90;;;;;;453564;262;1246;-76
2022/04/19 09:38:55;;;;;;;;;;;21.80;28.90;;;;;;453510;263;991;-76
2022/04/19 09:40:56;;;;;;;;;;;21.60;29.00;;;;;;453531;263;1334;-75
2022/04/19 09:42:57;;;;;;;;;;;21.70;28.90;;;;;;453545;262;1109;-75
2022/04/19 09:44:59;;;;;;;;;;;21.70;28.90;;;;;;453426;262;1064;-75
2022/04/19 09:47:00;;;;;;;;;;;21.60;29.00;;;;;;453424;262;2209;-76
2022/04/19 09:49:01;;;;;;;;;;;21.60;28.90;;;;;;453516;263;979;-75
2022/04/19 09:51:03;;;;;;;;;;;21.60;29.00;;;;;;453594;262;1360;-75
2022/04/19 09:53:04;;;;;;;;;;;21.60;28.90;;;;;;453528;262;1116;-75
2022/04/19 09:55:05;;;;;;;;;;;21.60;28.90;;;;;;453555;262;1479;-75
2022/04/19 09:57:07;;;;;;;;;;;21.60;29.00;;;;;;453445;262;1202;-75
2022/04/19 09:59:08;;;;;;;;;;;21.60;28.90;;;;;;453459;262;1070;-75
2022/04/19 10:08:10;;;;;;;;;;;21.60;28.90;;;;;;453508;262;1182;-75
2022/04/19 10:10:10;;;;;;;;;;;21.50;29.00;;;;;;453457;261;2031;-76
2022/04/19 10:12:11;;;;;;;;;;;21.60;29.10;;;;;;453697;263;1153;-76
2022/04/19 10:14:13;;;;;;;;;;;21.50;29.00;;;;;;453502;262;1113;-75
2022/04/19 10:16:15;;;;;;;;;;;21.60;29.10;;;;;;453407;262;1162;-75
2022/04/19 10:18:16;;;;;;;;;;;21.50;29.10;;;;;;453382;262;1138;-75
2022/04/19 10:20:17;;;;;;;;;;;21.50;29.10;;;;;;453567;262;1064;-75
2022/04/19 10:22:19;;;;;;;;;;;21.60;29.00;;;;;;453556;262;1238;-75
2022/04/19 10:24:20;;;;;;;;;;;21.50;28.90;;;;;;453513;263;1235;-75
2022/04/19 10:26:21;;;;;;;;;;;21.60;28.90;;;;;;453486;263;1240;-76
2022/04/19 10:28:23;;;;;;;;;;;21.60;29.00;;;;;;453573;262;2208;-76
2022/04/19 10:30:27;;;;;;;;;;;21.70;28.90;;;;;;453593;262;1088;-75
2022/04/19 10:32:25;;;;;;;;;;;21.70;28.80;;;;;;453394;263;1377;-75
2022/04/19 10:34:27;;;;;;;;;;;21.80;28.70;;;;;;453540;263;1169;-75
2022/04/19 10:36:28;;;;;;;;;;;21.70;28.70;;;;;;453399;263;1398;-75
2022/04/19 10:38:29;;;;;;;;;;;21.70;28.70;;;;;;453526;262;1111;-75
2022/04/19 10:40:31;;;;;;;;;;;21.70;28.80;;;;;;453534;262;1135;-75
2022/04/19 10:42:32;;;;;;;;;;;21.50;28.80;;;;;;453512;263;1535;-75
2022/04/19 10:44:36;;;;;;;;;;;21.60;28.70;;;;;;453264;263;1101;-75
2022/04/19 10:46:36;;;;;;;;;;;21.70;28.70;;;;;;453321;263;1462;-76
2022/04/19 10:48:37;;;;;;;;;;;21.70;28.70;;;;;;453395;262;2133;-75
2022/04/19 10:50:39;;;;;;;;;;;21.70;28.80;;;;;;453470;263;1239;-75
2022/04/19 10:52:40;;;;;;;;;;;21.70;28.70;;;;;;453370;262;1138;-75
2022/04/19 10:54:42;;;;;;;;;;;21.70;28.80;;;;;;453481;263;1015;-75
2022/04/19 10:56:43;;;;;;;;;;;21.60;28.80;;;;;;453529;262;1224;-75
2022/04/19 10:58:44;;;;;;;;;;;21.60;28.80;;;;;;453395;262;1190;-75
2022/04/19 11:00:46;;;;;;;;;;;21.70;28.80;;;;;;453398;262;1343;-75
2022/04/19 11:02:47;;;;;;;;;;;21.60;28.70;;;;;;453401;263;1209;-75
2022/04/19 11:04:49;;;;;;;;;;;21.60;28.70;;;;;;453320;262;1121;-76
2022/04/19 11:06:50;;;;;;;;;;;21.70;28.70;;;;;;453329;262;2257;-75
2022/04/19 11:08:51;;;;;;;;;;;21.60;28.70;;;;;;453355;263;1100;-75
2022/04/19 11:10:52;;;;;;;;;;;21.60;28.70;;;;;;453504;263;1451;-75
2022/04/19 11:12:54;;;;;;;;;;;21.70;28.70;;;;;;453516;263;1132;-75
2022/04/19 11:14:55;;;;;;;;;;;21.70;28.70;;;;;;453492;262;1129;-75
2022/04/19 11:16:58;;;;;;;;;;;21.70;28.60;;;;;;453455;262;1224;-75
2022/04/19 11:18:58;;;;;;;;;;;21.70;28.60;;;;;;453412;263;1420;-75
2022/04/19 11:20:59;;;;;;;;;;;21.70;28.60;;;;;;453291;262;1382;-76
2022/04/19 11:23:01;;;;;;;;;;;21.60;28.60;;;;;;453494;263;1199;-76
2022/04/19 11:25:02;;;;;;;;;;;21.60;28.70;;;;;;453423;262;1401;-76
2022/04/19 11:27:03;;;;;;;;;;;21.60;28.60;;;;;;453550;263;2176;-75
2022/04/19 11:29:04;;;;;;;;;;;21.60;28.60;;;;;;453525;263;1035;-75
2022/04/19 11:31:06;;;;;;;;;;;21.60;28.60;;;;;;453600;263;1064;-75
2022/04/19 11:33:08;;;;;;;;;;;21.60;28.60;;;;;;453595;262;1135;-75
2022/04/19 11:35:08;;;;;;;;;;;21.60;28.60;;;;;;453451;262;1283;-75
2022/04/19 11:37:10;;;;;;;;;;;21.70;28.60;;;;;;453226;262;1088;-75
2022/04/19 11:46:43;;;;;;;;;;;21.60;28.60;;;;;;453398;263;1354;-75
2022/04/19 11:48:11;;;;;;;;;;;21.60;28.50;;;;;;453539;261;2153;-75
2022/04/19 11:50:12;;;;;;;;;;;21.70;28.50;;;;;;453506;263;1110;-75
2022/04/19 11:52:13;;;;;;;;;;;21.70;28.40;;;;;;453518;263;1211;-75
2022/04/19 11:54:14;;;;;;;;;;;21.60;28.40;;;;;;453602;263;1074;-75
2022/04/19 11:56:16;;;;;;;;;;;21.70;28.40;;;;;;453551;262;1174;-75
2022/04/19 11:58:17;;;;;;;;;;;21.70;28.40;;;;;;453532;263;1159;-75
2022/04/19 12:00:18;;;;;;;;;;;21.70;28.40;;;;;;453376;262;1100;-75
2022/04/19 12:02:20;;;;;;;;;;;21.80;28.30;;;;;;453507;262;1072;-75
2022/04/19 12:04:21;;;;;;;;;;;21.70;28.40;;;;;;453470;263;1089;-75
2022/04/19 12:06:23;;;;;;;;;;;21.70;28.40;;;;;;453285;262;1237;-75
2022/04/19 12:08:24;;;;;;;;;;;21.70;28.30;;;;;;453381;262;2200;-75
2022/04/19 12:10:25;;;;;;;;;;;21.70;28.30;;;;;;453466;263;1077;-75
2022/04/19 12:12:27;;;;;;;;;;;21.80;28.30;;;;;;453304;263;1492;-75
2022/04/19 12:14:28;;;;;;;;;;;21.80;28.30;;;;;;453432;262;1067;-75
2022/04/19 12:16:30;;;;;;;;;;;21.60;28.40;;;;;;453487;262;1384;-75
2022/04/19 12:18:31;;;;;;;;;;;21.70;28.40;;;;;;453540;262;1255;-75
2022/04/19 12:20:33;;;;;;;;;;;21.60;28.40;;;;;;453445;262;1090;-75
2022/04/19 12:22:34;;;;;;;;;;;21.70;28.40;;;;;;453328;262;1329;-75
2022/04/19 12:24:35;;;;;;;;;;;21.60;28.40;;;;;;453298;263;1080;-76
2022/04/19 12:26:37;;;;;;;;;;;21.80;28.30;;;;;;453331;262;1096;-76
2022/04/19 12:28:38;;;;;;;;;;;21.70;28.40;;;;;;453304;262;2192;-75
2022/04/19 12:30:40;;;;;;;;;;;21.70;28.40;;;;;;453407;263;1168;-76
2022/04/19 12:32:41;;;;;;;;;;;21.60;28.40;;;;;;453366;263;1048;-75
2022/04/19 12:34:42;;;;;;;;;;;21.70;28.40;;;;;;453267;263;1315;-75